createdAt,value
2018-09-14T00:01:51.765Z,11.00
2018-09-14T00:04:21.001Z,10.10
2018-09-14T00:06:50.225Z,10.50
2018-09-14T00:09:19.753Z,10.30
2018-09-14T00:11:50.235Z,10.70
2018-09-14T00:14:19.528Z,10.57
2018-09-14T00:16:49.221Z,10.50
2018-09-14T00:19:18.477Z,11.50
2018-09-14T00:21:47.724Z,13.80
2018-09-14T00:24:17.015Z,13.50
2018-09-14T00:26:46.256Z,15.07
2018-09-14T00:29:15.497Z,16.27
2018-09-14T00:31:44.929Z,13.90
2018-09-14T00:34:14.173Z,12.73
2018-09-14T00:36:43.544Z,16.93
2018-09-14T00:39:13.277Z,14.40
2018-09-14T00:41:42.565Z,16.07
2018-09-14T00:44:11.808Z,20.50
2018-09-14T00:46:41.087Z,19.03
2018-09-14T00:49:10.367Z,20.47
2018-09-14T00:51:39.699Z,27.97
2018-09-14T00:54:09.027Z,21.07
2018-09-14T00:56:38.248Z,23.50
2018-09-14T00:59:07.497Z,19.60
2018-09-14T01:01:36.775Z,21.13
2018-09-14T01:04:06.096Z,20.37
2018-09-14T01:06:35.364Z,26.80
2018-09-14T01:09:07.195Z,28.03
2018-09-14T01:11:36.448Z,23.67
2018-09-14T01:14:05.709Z,25.47
2018-09-14T01:16:35.212Z,30.37
2018-09-14T01:19:05.164Z,28.33
2018-09-14T01:21:34.421Z,23.10
2018-09-14T01:24:03.679Z,40.00
2018-09-14T01:26:32.960Z,28.87
2018-09-14T01:29:02.179Z,29.53
2018-09-14T01:31:31.436Z,27.37
2018-09-14T01:34:00.696Z,27.17
2018-09-14T01:36:29.925Z,24.37
2018-09-14T01:38:59.264Z,23.93
2018-09-14T01:41:28.516Z,29.90
2018-09-14T01:43:57.761Z,26.60
2018-09-14T01:46:27.024Z,24.60
2018-09-14T01:48:56.340Z,25.90
2018-09-14T01:51:25.640Z,34.47
2018-09-14T01:53:54.932Z,23.83
2018-09-14T01:56:24.212Z,27.43
2018-09-14T01:58:53.479Z,26.57
2018-09-14T02:01:22.883Z,33.73
2018-09-14T02:03:52.146Z,33.60
2018-09-14T02:06:21.955Z,29.30
2018-09-14T02:08:51.238Z,32.00
2018-09-14T02:11:20.500Z,23.80
2018-09-14T02:13:49.729Z,29.93
2018-09-14T02:16:19.021Z,34.60
2018-09-14T02:18:48.368Z,28.23
2018-09-14T02:21:17.892Z,29.60
2018-09-14T02:23:47.697Z,38.17
2018-09-14T02:26:16.923Z,27.37
2018-09-14T02:28:46.228Z,30.33
2018-09-14T02:31:15.552Z,26.37
2018-09-14T02:33:44.797Z,29.47
2018-09-14T02:36:14.029Z,28.57
2018-09-14T02:38:44.513Z,26.23
2018-09-14T02:41:13.749Z,28.30
2018-09-14T02:43:42.988Z,32.47
2018-09-14T02:46:12.360Z,24.60
2018-09-14T02:48:41.631Z,28.20
2018-09-14T02:51:10.853Z,29.37
2018-09-14T02:53:40.179Z,29.47
2018-09-14T02:56:09.420Z,31.00
2018-09-14T02:58:38.711Z,27.57
2018-09-14T03:01:07.967Z,32.17
2018-09-14T03:03:37.200Z,32.93
2018-09-14T03:06:06.584Z,38.27
2018-09-14T03:08:35.948Z,26.33
2018-09-14T03:11:05.197Z,28.03
2018-09-14T03:13:34.461Z,27.83
2018-09-14T03:16:03.736Z,28.63
2018-09-14T03:18:32.997Z,27.50
2018-09-14T03:21:02.242Z,30.93
2018-09-14T03:23:32.005Z,31.80
2018-09-14T03:26:01.544Z,31.43
2018-09-14T03:28:30.802Z,30.60
2018-09-14T03:31:00.376Z,33.80
2018-09-14T03:33:29.600Z,26.97
2018-09-14T03:35:58.849Z,28.03
2018-09-14T03:38:28.377Z,25.47
2018-09-14T03:40:57.689Z,27.63
2018-09-14T03:43:26.929Z,29.50
2018-09-14T03:45:56.196Z,25.10
2018-09-14T03:48:25.453Z,30.77
2018-09-14T03:50:54.696Z,36.07
2018-09-14T03:53:24.016Z,28.37
2018-09-14T03:55:53.456Z,35.43
2018-09-14T03:58:22.793Z,26.80
2018-09-14T04:00:52.101Z,34.53
2018-09-14T04:03:21.353Z,25.87
2018-09-14T04:05:50.660Z,27.47
2018-09-14T04:08:19.938Z,25.60
2018-09-14T04:10:49.206Z,27.40
2018-09-14T04:13:18.472Z,27.33
2018-09-14T04:15:48.069Z,27.53
2018-09-14T04:18:17.299Z,28.47
2018-09-14T04:20:46.545Z,28.90
2018-09-14T04:23:15.834Z,33.70
2018-09-14T04:25:45.164Z,30.87
2018-09-14T04:28:14.567Z,33.77
2018-09-14T04:30:43.997Z,36.97
2018-09-14T04:33:13.273Z,28.20
2018-09-14T04:35:42.607Z,29.27
2018-09-14T04:38:12.178Z,28.33
2018-09-14T04:40:41.892Z,27.70
2018-09-14T04:43:11.127Z,27.03
2018-09-14T04:45:40.396Z,31.53
2018-09-14T04:48:09.728Z,26.70
2018-09-14T04:50:38.951Z,30.30
2018-09-14T04:53:08.225Z,32.70
2018-09-14T04:55:37.472Z,28.17
2018-09-14T04:58:06.701Z,27.87
2018-09-14T05:00:36.043Z,25.67
2018-09-14T05:03:05.553Z,25.13
2018-09-14T05:05:34.772Z,35.03
2018-09-14T05:08:04.160Z,26.27
2018-09-14T05:10:33.404Z,26.33
2018-09-14T05:13:02.628Z,25.70
2018-09-14T05:15:31.880Z,29.47
2018-09-14T05:18:02.711Z,27.97
2018-09-14T05:20:32.424Z,27.90
2018-09-14T05:23:02.168Z,23.70
2018-09-14T05:25:31.768Z,37.37
2018-09-14T05:28:01.295Z,36.03
2018-09-14T05:30:30.832Z,25.77
2018-09-14T05:33:00.103Z,28.17
2018-09-14T05:35:29.362Z,29.77
2018-09-14T05:37:58.636Z,25.30
2018-09-14T05:40:28.148Z,27.07
2018-09-14T05:42:57.380Z,31.93
2018-09-14T05:45:27.212Z,27.27
2018-09-14T05:47:56.453Z,30.43
2018-09-14T05:50:25.692Z,31.97
2018-09-14T05:52:54.987Z,25.00
2018-09-14T05:55:24.244Z,37.23
2018-09-14T05:57:53.475Z,33.20
2018-09-14T06:00:22.828Z,25.30
2018-09-14T06:02:52.047Z,30.00
2018-09-14T06:05:21.328Z,31.97
2018-09-14T06:07:50.663Z,25.63
2018-09-14T06:10:19.912Z,25.47
2018-09-14T06:12:49.289Z,30.20
2018-09-14T06:15:18.565Z,27.70
2018-09-14T06:17:47.797Z,30.27
2018-09-14T06:20:17.041Z,31.73
2018-09-14T06:22:46.363Z,33.00
2018-09-14T06:25:15.567Z,31.47
2018-09-14T06:27:44.808Z,33.20
2018-09-14T06:30:14.719Z,28.40
2018-09-14T06:32:44.309Z,29.17
2018-09-14T06:35:13.569Z,28.27
2018-09-14T06:37:42.928Z,28.80
2018-09-14T06:40:12.173Z,25.13
2018-09-14T06:42:41.407Z,38.03
2018-09-14T06:45:10.768Z,26.10
2018-09-14T06:47:39.967Z,33.27
2018-09-14T06:50:09.196Z,27.63
2018-09-14T06:52:38.524Z,33.60
2018-09-14T06:55:10.461Z,29.43
2018-09-14T06:57:39.728Z,34.20
2018-09-14T07:00:09.253Z,29.70
2018-09-14T07:02:38.676Z,33.67
2018-09-14T07:05:08.001Z,27.10
2018-09-14T07:07:37.236Z,25.90
2018-09-14T07:10:06.504Z,31.90
2018-09-14T07:12:36.133Z,38.90
2018-09-14T07:15:05.481Z,23.70
2018-09-14T07:17:34.757Z,30.53
2018-09-14T07:20:06.065Z,28.03
2018-09-14T07:22:38.368Z,29.17
2018-09-14T07:25:09.653Z,36.77
2018-09-14T07:27:39.484Z,33.93
2018-09-14T07:30:08.868Z,26.50
2018-09-14T07:32:41.474Z,28.63
2018-09-14T07:35:10.696Z,27.80
2018-09-14T07:37:40.286Z,28.70
2018-09-14T07:40:09.896Z,27.47
2018-09-14T07:42:39.256Z,29.17
2018-09-14T07:45:08.654Z,34.27
2018-09-14T07:47:37.961Z,28.60
2018-09-14T07:50:08.425Z,33.00
2018-09-14T07:52:39.994Z,31.43
2018-09-14T07:55:09.972Z,28.40
2018-09-14T07:57:39.225Z,28.87
2018-09-14T08:00:08.625Z,34.10
2018-09-14T08:02:37.904Z,40.47
2018-09-14T08:05:08.380Z,42.47
2018-09-14T08:07:37.738Z,48.80
2018-09-14T08:10:07.157Z,32.67
2018-09-14T08:12:36.536Z,37.17
2018-09-14T08:15:06.451Z,39.93
2018-09-14T08:17:35.876Z,36.57
2018-09-14T08:20:05.486Z,40.97
2018-09-14T08:22:35.157Z,39.93
2018-09-14T08:25:04.565Z,40.93
2018-09-14T08:27:34.135Z,43.33
2018-09-14T08:30:03.393Z,36.40
2018-09-14T08:32:32.973Z,39.53
2018-09-14T08:35:02.931Z,40.93
2018-09-14T08:37:32.768Z,47.67
2018-09-14T08:40:02.324Z,43.57
2018-09-14T08:42:31.704Z,38.83
2018-09-14T08:45:01.444Z,37.33
2018-09-14T08:47:31.293Z,39.07
2018-09-14T08:50:00.903Z,40.90
2018-09-14T08:52:30.152Z,42.47
2018-09-14T08:54:59.386Z,43.20
2018-09-14T08:57:28.656Z,44.10
2018-09-14T08:59:58.394Z,42.97
2018-09-14T09:02:27.624Z,41.77
2018-09-14T09:04:57.969Z,40.07
2018-09-14T09:07:35.681Z,40.13
2018-09-14T09:10:05.911Z,45.67
2018-09-14T09:12:36.397Z,37.80
2018-09-14T09:15:05.792Z,44.43
2018-09-14T09:17:35.126Z,41.57
2018-09-14T09:20:05.476Z,37.73
2018-09-14T09:22:34.832Z,40.63
2018-09-14T09:25:04.116Z,49.27
2018-09-14T09:27:33.573Z,39.07
2018-09-14T09:30:03.078Z,41.27
2018-09-14T09:32:32.407Z,41.10
2018-09-14T09:35:01.734Z,41.43
2018-09-14T09:37:31.220Z,38.73
2018-09-14T09:40:00.466Z,43.43
2018-09-14T09:42:30.160Z,38.63
2018-09-14T09:44:59.397Z,38.73
2018-09-14T09:47:28.704Z,34.77
2018-09-14T09:49:57.992Z,37.40
2018-09-14T09:52:27.235Z,35.67
2018-09-14T09:54:56.464Z,35.40
2018-09-14T09:57:25.778Z,34.97
2018-09-14T09:59:55.046Z,35.80
2018-09-14T10:02:34.205Z,32.43
2018-09-14T10:05:08.816Z,35.77
2018-09-14T10:07:38.167Z,39.87
2018-09-14T10:10:11.475Z,45.43
2018-09-14T10:12:40.793Z,34.20
2018-09-14T10:15:10.245Z,37.03
2018-09-14T10:17:39.485Z,36.20
2018-09-14T10:20:10.776Z,34.00
2018-09-14T10:22:40.105Z,32.43
2018-09-14T10:25:09.343Z,44.23
2018-09-14T10:27:38.895Z,35.40
2018-09-14T10:30:08.284Z,34.80
2018-09-14T10:32:37.621Z,34.30
2018-09-14T10:35:07.280Z,37.57
2018-09-14T10:37:37.068Z,35.17
2018-09-14T10:40:06.423Z,33.37
2018-09-14T10:42:36.071Z,37.20
2018-09-14T10:45:05.705Z,29.93
2018-09-14T10:47:34.940Z,27.93
2018-09-14T10:50:04.398Z,33.77
2018-09-14T10:52:33.940Z,29.90
2018-09-14T10:55:03.320Z,28.13
2018-09-14T10:57:32.591Z,33.70
2018-09-14T11:00:01.844Z,26.90
2018-09-14T11:02:31.076Z,24.30
2018-09-14T11:05:01.176Z,22.00
2018-09-14T11:07:30.739Z,22.90
2018-09-14T11:10:00.016Z,22.77
2018-09-14T11:12:29.715Z,21.93
2018-09-14T11:14:58.895Z,18.53
2018-09-14T11:17:28.372Z,20.80
2018-09-14T11:19:57.621Z,23.40
2018-09-14T11:22:26.895Z,21.07
2018-09-14T11:24:56.513Z,17.73
2018-09-14T11:27:26.068Z,14.90
2018-09-14T11:29:55.316Z,14.10
2018-09-14T11:32:30.056Z,18.40
2018-09-14T11:34:59.548Z,9.83
2018-09-14T11:37:28.856Z,9.80
2018-09-14T11:40:00.572Z,9.53
2018-09-14T11:42:31.328Z,9.67
2018-09-14T11:45:00.648Z,7.90
2018-09-14T11:47:30.016Z,11.10
2018-09-14T11:49:59.252Z,14.00
2018-09-14T11:52:28.495Z,14.50
2018-09-14T11:54:57.748Z,13.03
2018-09-14T11:57:26.997Z,13.53
2018-09-14T11:59:56.244Z,11.20
2018-09-14T12:02:25.987Z,16.43
2018-09-14T12:04:56.085Z,17.63
2018-09-14T12:07:25.352Z,16.13
2018-09-14T12:09:54.826Z,12.50
2018-09-14T12:12:24.084Z,15.23
2018-09-14T12:14:53.389Z,12.37
2018-09-14T12:17:23.738Z,14.17
2018-09-14T12:19:52.972Z,15.87
2018-09-14T12:22:22.311Z,18.40
2018-09-14T12:24:51.508Z,14.33
2018-09-14T12:27:20.800Z,15.83
2018-09-14T12:29:50.079Z,19.17
2018-09-14T12:32:19.636Z,16.47
2018-09-14T12:34:48.868Z,24.83
2018-09-14T12:37:18.117Z,23.33
2018-09-14T12:39:47.464Z,21.63
2018-09-14T12:42:17.072Z,20.53
2018-09-14T12:44:46.392Z,21.60
2018-09-14T12:47:15.663Z,19.40
2018-09-14T12:49:44.903Z,22.73
2018-09-14T12:52:14.177Z,17.13
2018-09-14T12:54:43.500Z,15.90
2018-09-14T12:57:12.759Z,19.57
2018-09-14T12:59:42.000Z,15.37
2018-09-14T13:02:11.303Z,21.57
2018-09-14T13:04:40.558Z,19.87
2018-09-14T13:07:09.801Z,16.43
2018-09-14T13:09:39.097Z,14.10
2018-09-14T13:12:08.323Z,15.07
2018-09-14T13:14:37.604Z,12.27
2018-09-14T13:17:11.759Z,11.93
2018-09-14T13:19:41.178Z,12.30
2018-09-14T13:22:10.777Z,8.70
2018-09-14T13:24:40.055Z,12.33
2018-09-14T13:27:09.340Z,8.97
2018-09-14T13:29:38.585Z,9.73
2018-09-14T13:32:07.849Z,9.77
2018-09-14T13:34:37.095Z,14.97
2018-09-14T13:37:06.352Z,13.77
2018-09-14T13:39:35.836Z,12.93
2018-09-14T13:42:05.065Z,12.40
2018-09-14T13:44:34.456Z,11.10
2018-09-14T13:47:03.721Z,12.60
2018-09-14T13:49:33.094Z,10.07
2018-09-14T13:52:02.302Z,15.70
2018-09-14T13:54:31.577Z,13.80
2018-09-14T13:57:00.853Z,12.93
2018-09-14T13:59:30.121Z,10.73
2018-09-14T14:01:59.784Z,6.70
2018-09-14T14:04:29.015Z,7.90
2018-09-14T14:06:58.255Z,7.33
2018-09-14T14:09:27.840Z,8.17
2018-09-14T14:11:57.371Z,8.77
2018-09-14T14:14:27.937Z,7.53
2018-09-14T14:16:57.350Z,10.93
2018-09-14T14:19:26.484Z,9.40
2018-09-14T14:21:55.724Z,12.17
2018-09-14T14:24:25.397Z,13.03
2018-09-14T14:26:55.940Z,11.90
2018-09-14T14:29:26.040Z,11.00
2018-09-14T14:31:55.480Z,15.00
2018-09-14T14:34:24.714Z,8.30
2018-09-14T14:36:53.992Z,7.13
2018-09-14T14:39:23.212Z,6.87
2018-09-14T14:41:52.482Z,7.50
2018-09-14T14:44:21.780Z,8.00
2018-09-14T14:46:51.148Z,6.07
2018-09-14T14:49:20.492Z,5.77
2018-09-14T14:51:50.485Z,7.00
2018-09-14T14:54:21.025Z,7.83
2018-09-14T14:56:50.288Z,6.43
2018-09-14T14:59:19.554Z,8.10
2018-09-14T15:01:48.959Z,5.57
2018-09-14T15:04:18.328Z,6.00
2018-09-14T15:06:47.605Z,6.40
2018-09-14T15:09:16.860Z,4.73
2018-09-14T15:11:46.140Z,5.60
2018-09-14T15:14:15.445Z,5.60
2018-09-14T15:16:44.728Z,5.77
2018-09-14T15:19:13.999Z,7.00
2018-09-14T15:21:43.324Z,7.23
2018-09-14T15:24:12.561Z,6.70
2018-09-14T15:26:42.076Z,6.13
2018-09-14T15:29:11.288Z,6.20
2018-09-14T15:31:40.537Z,6.17
2018-09-14T15:34:09.798Z,5.50
2018-09-14T15:36:39.108Z,5.73
2018-09-14T15:39:11.408Z,6.40
2018-09-14T15:41:40.914Z,8.77
2018-09-14T15:44:10.597Z,7.53
2018-09-14T15:46:40.596Z,6.00
2018-09-14T15:49:12.454Z,5.10
2018-09-14T15:51:41.688Z,6.40
2018-09-14T15:54:11.036Z,9.10
2018-09-14T15:56:40.268Z,6.50
2018-09-14T15:59:09.522Z,6.27
2018-09-14T16:01:38.740Z,7.97
2018-09-14T16:04:07.970Z,6.33
2018-09-14T16:06:37.539Z,5.80
2018-09-14T16:09:08.637Z,7.40
2018-09-14T16:11:37.904Z,5.73
2018-09-14T16:14:07.287Z,5.20
2018-09-14T16:16:36.544Z,5.10
2018-09-14T16:19:07.113Z,6.00
2018-09-14T16:21:36.407Z,10.03
2018-09-14T16:24:05.714Z,9.10
2018-09-14T16:26:37.267Z,10.63
2018-09-14T16:29:06.488Z,15.57
2018-09-14T16:31:36.727Z,7.40
2018-09-14T16:34:06.291Z,6.03
2018-09-14T16:36:35.591Z,5.50
2018-09-14T16:39:07.232Z,6.07
2018-09-14T16:41:36.463Z,7.33
2018-09-14T16:44:06.265Z,6.10
2018-09-14T16:46:36.075Z,5.97
2018-09-14T16:49:05.425Z,6.53
2018-09-14T16:51:34.919Z,6.67
2018-09-14T16:54:04.229Z,6.20
2018-09-14T16:56:33.444Z,7.93
2018-09-14T16:59:02.696Z,6.27
2018-09-14T17:01:31.933Z,7.03
2018-09-14T17:04:02.159Z,7.97
2018-09-14T17:06:31.524Z,7.40
2018-09-14T17:09:01.288Z,13.93
2018-09-14T17:11:30.583Z,7.67
2018-09-14T17:13:59.888Z,7.70
2018-09-14T17:16:29.549Z,7.00
2018-09-14T17:19:03.269Z,7.00
2018-09-14T17:21:32.554Z,7.20
2018-09-14T17:24:03.247Z,10.10
2018-09-14T17:26:32.719Z,10.37
2018-09-14T17:29:02.341Z,7.97
2018-09-14T17:31:31.849Z,9.73
2018-09-14T17:34:01.147Z,8.10
2018-09-14T17:36:30.497Z,7.63
2018-09-14T17:39:06.240Z,12.90
2018-09-14T17:41:35.520Z,7.80
2018-09-14T17:44:04.794Z,13.00
2018-09-14T17:46:34.040Z,8.60
2018-09-14T17:49:03.796Z,7.90
2018-09-14T17:51:33.424Z,8.80
2018-09-14T17:54:02.668Z,8.50
2018-09-14T17:56:33.172Z,7.50
2018-09-14T17:59:02.492Z,9.70
2018-09-14T18:01:31.736Z,8.10
2018-09-14T18:04:02.319Z,7.33
2018-09-14T18:06:31.573Z,8.20
2018-09-14T18:09:00.912Z,9.90
2018-09-14T18:11:30.401Z,8.77
2018-09-14T18:13:59.622Z,10.03
2018-09-14T18:16:28.966Z,9.50
2018-09-14T18:18:58.282Z,9.17
2018-09-14T18:21:27.561Z,10.07
2018-09-14T18:23:59.092Z,8.90
2018-09-14T18:26:28.454Z,9.70
2018-09-14T18:28:57.993Z,8.80
2018-09-14T18:31:27.440Z,11.23
2018-09-14T18:33:56.668Z,9.80
2018-09-14T18:36:27.194Z,7.47
2018-09-14T18:38:56.541Z,8.80
2018-09-14T18:41:29.484Z,7.73
2018-09-14T18:43:58.868Z,8.30
2018-09-14T18:46:28.384Z,11.70
2018-09-14T18:48:57.637Z,7.07
2018-09-14T18:51:29.501Z,6.90
2018-09-14T18:54:03.058Z,7.70
2018-09-14T18:56:32.383Z,7.20
2018-09-14T18:59:01.647Z,8.73
2018-09-14T19:01:30.988Z,7.93
2018-09-14T19:04:00.273Z,9.40
2018-09-14T19:06:29.544Z,10.50
2018-09-14T19:08:58.872Z,6.50
2018-09-14T19:11:28.216Z,6.97
2018-09-14T19:13:58.400Z,7.33
2018-09-14T19:16:27.755Z,11.03
2018-09-14T19:18:57.076Z,6.40
2018-09-14T19:21:26.343Z,15.50
2018-09-14T19:23:55.611Z,9.27
2018-09-14T19:26:24.872Z,6.60
2018-09-14T19:28:54.180Z,8.80
2018-09-14T19:31:23.555Z,8.90
2018-09-14T19:33:53.153Z,7.00
2018-09-14T19:36:22.817Z,7.00
2018-09-14T19:38:52.087Z,7.60
2018-09-14T19:41:21.948Z,7.33
2018-09-14T19:43:51.421Z,6.70
2018-09-14T19:46:20.670Z,7.37
2018-09-14T19:48:50.168Z,10.77
2018-09-14T19:51:19.859Z,7.80
2018-09-14T19:53:49.371Z,12.83
2018-09-14T19:56:18.708Z,8.53
2018-09-14T19:58:48.866Z,11.37
2018-09-14T20:01:18.104Z,11.37
2018-09-14T20:03:47.917Z,8.63
2018-09-14T20:06:17.824Z,8.10
2018-09-14T20:08:47.034Z,10.37
2018-09-14T20:11:17.748Z,12.00
2018-09-14T20:13:47.232Z,8.10
2018-09-14T20:16:16.487Z,9.70
2018-09-14T20:18:45.801Z,6.87
2018-09-14T20:21:15.162Z,20.83
2018-09-14T20:23:44.376Z,7.13
2018-09-14T20:26:13.924Z,8.50
2018-09-14T20:28:43.256Z,6.47
2018-09-14T20:31:12.521Z,11.60
2018-09-14T20:33:41.779Z,7.30
2018-09-14T20:36:11.119Z,14.83
2018-09-14T20:38:40.653Z,9.10
2018-09-14T20:41:12.957Z,9.70
2018-09-14T20:43:42.639Z,10.63
2018-09-14T20:46:14.192Z,7.83
2018-09-14T20:48:43.456Z,13.20
2018-09-14T20:51:12.712Z,9.23
2018-09-14T20:53:43.016Z,9.50
2018-09-14T20:56:12.305Z,9.43
2018-09-14T20:58:41.604Z,9.40
2018-09-14T21:01:11.140Z,7.90
2018-09-14T21:03:40.492Z,8.70
2018-09-14T21:06:09.712Z,8.87
2018-09-14T21:08:38.980Z,8.70
2018-09-14T21:11:08.418Z,8.90
2018-09-14T21:13:37.648Z,8.83
2018-09-14T21:16:09.177Z,8.27
2018-09-14T21:18:38.503Z,8.73
2018-09-14T21:21:07.749Z,8.00
2018-09-14T21:23:37.384Z,10.57
2018-09-14T21:26:06.732Z,10.60
2018-09-14T21:28:36.321Z,9.80
2018-09-14T21:31:05.600Z,10.73
2018-09-14T21:33:39.524Z,9.90
2018-09-14T21:36:08.757Z,8.80
2018-09-14T21:38:38.001Z,8.30
2018-09-14T21:41:07.240Z,10.47
2018-09-14T21:43:36.856Z,10.97
2018-09-14T21:46:06.096Z,17.33
2018-09-14T21:48:35.304Z,9.93
2018-09-14T21:51:04.600Z,39.60
2018-09-14T21:53:34.322Z,9.47
2018-09-14T21:56:03.824Z,10.70
2018-09-14T21:58:33.083Z,6.30
2018-09-14T22:01:10.482Z,6.80
2018-09-14T22:03:39.964Z,9.90
2018-09-14T22:06:09.258Z,7.57
2018-09-14T22:08:38.643Z,8.20
2018-09-14T22:11:08.000Z,7.77
2018-09-14T22:13:37.670Z,7.30
2018-09-14T22:16:06.924Z,10.07
2018-09-14T22:18:36.437Z,6.37
2018-09-14T22:21:06.089Z,6.93
2018-09-14T22:23:35.452Z,8.50
2018-09-14T22:26:05.294Z,7.90
2018-09-14T22:28:34.728Z,9.27
2018-09-14T22:31:04.008Z,7.70
2018-09-14T22:33:33.292Z,9.70
2018-09-14T22:36:02.531Z,8.20
2018-09-14T22:38:33.036Z,8.03
2018-09-14T22:41:02.289Z,11.90
2018-09-14T22:43:31.584Z,11.77
2018-09-14T22:46:00.827Z,8.20
2018-09-14T22:48:30.163Z,10.10
2018-09-14T22:50:59.504Z,9.03
2018-09-14T22:53:28.876Z,9.33
2018-09-14T22:55:58.444Z,10.47
2018-09-14T22:58:27.668Z,8.77
2018-09-14T23:01:02.287Z,8.03
2018-09-14T23:03:31.559Z,6.90
2018-09-14T23:06:00.781Z,7.00
2018-09-14T23:08:30.088Z,8.13
2018-09-14T23:10:59.460Z,7.33
2018-09-14T23:13:29.052Z,8.60
2018-09-14T23:16:00.408Z,9.77
2018-09-14T23:18:30.648Z,7.70
2018-09-14T23:21:00.643Z,7.80
2018-09-14T23:23:29.977Z,8.80
2018-09-14T23:26:02.936Z,7.20
2018-09-14T23:28:32.312Z,10.90
2018-09-14T23:31:01.529Z,7.57
2018-09-14T23:33:30.759Z,7.40
2018-09-14T23:36:00.012Z,7.80
2018-09-14T23:38:29.243Z,6.37
2018-09-14T23:40:58.479Z,8.37
2018-09-14T23:43:27.967Z,7.10
2018-09-14T23:45:57.268Z,7.27
2018-09-14T23:48:26.538Z,7.80
2018-09-14T23:50:55.852Z,9.60
2018-09-14T23:53:25.141Z,8.00
2018-09-14T23:55:54.393Z,9.03
2018-09-14T23:58:23.835Z,7.80
